createdAt,value
2018-06-12T00:04:31.732Z,17.00
2018-06-12T00:07:00.393Z,16.80
2018-06-12T00:09:29.103Z,16.80
2018-06-12T00:11:57.778Z,16.80
2018-06-12T00:14:26.541Z,16.70
2018-06-12T00:16:55.235Z,16.60
2018-06-12T00:21:53.398Z,16.70
2018-06-12T00:26:50.549Z,20.00
2018-06-12T00:29:19.233Z,16.70
2018-06-12T00:31:47.949Z,16.60
2018-06-12T00:34:16.685Z,16.50
2018-06-12T00:36:45.409Z,16.50
2018-06-12T00:39:14.102Z,16.50
2018-06-12T00:44:11.182Z,16.40
2018-06-12T00:46:40.282Z,16.40
2018-06-12T00:49:08.989Z,16.40
2018-06-12T00:51:37.697Z,16.40
2018-06-12T00:54:06.453Z,16.40
2018-06-12T00:56:46.521Z,16.30
2018-06-12T01:01:43.774Z,16.30
2018-06-12T01:04:12.570Z,16.20
2018-06-12T01:06:41.280Z,16.20
2018-06-12T01:09:09.993Z,16.30
2018-06-12T01:11:38.718Z,16.30
2018-06-12T01:14:07.438Z,16.30
2018-06-12T01:16:36.135Z,16.30
2018-06-12T01:19:04.940Z,16.30
2018-06-12T01:21:34.659Z,16.20
2018-06-12T01:26:31.816Z,16.20
2018-06-12T01:29:00.513Z,16.20
2018-06-12T01:33:57.969Z,16.20
2018-06-12T01:36:27.275Z,16.20
2018-06-12T01:38:55.995Z,16.20
2018-06-12T01:41:24.661Z,16.10
2018-06-12T01:43:53.396Z,16.10
2018-06-12T01:46:22.757Z,16.10
2018-06-12T01:48:51.483Z,16.10
2018-06-12T01:51:20.238Z,16.00
2018-06-12T01:53:48.925Z,16.00
2018-06-12T01:56:17.656Z,16.00
2018-06-12T01:58:46.346Z,15.90
2018-06-12T02:01:15.165Z,15.90
2018-06-12T02:03:43.826Z,15.80
2018-06-12T02:06:13.709Z,15.80
2018-06-12T02:08:42.457Z,15.80
2018-06-12T02:13:39.622Z,15.80
2018-06-12T02:16:08.357Z,15.60
2018-06-12T02:18:37.111Z,15.80
2018-06-12T02:21:05.813Z,15.80
2018-06-12T02:23:34.586Z,15.90
2018-06-12T02:26:03.348Z,15.90
2018-06-12T02:28:32.041Z,15.90
2018-06-12T02:35:57.567Z,15.80
2018-06-12T02:38:26.274Z,15.80
2018-06-12T02:43:23.350Z,15.80
2018-06-12T02:48:20.410Z,15.90
2018-06-12T02:50:49.151Z,15.90
2018-06-12T02:53:17.897Z,15.90
2018-06-12T02:55:46.582Z,15.90
2018-06-12T02:58:15.283Z,15.90
2018-06-12T03:00:43.983Z,16.00
2018-06-12T03:03:12.690Z,16.00
2018-06-12T03:05:41.392Z,16.10
2018-06-12T03:08:10.110Z,16.10
2018-06-12T03:10:38.802Z,16.10
2018-06-12T03:13:07.505Z,16.10
2018-06-12T03:15:36.273Z,16.00
2018-06-12T03:18:05.062Z,16.10
2018-06-12T03:20:42.078Z,16.10
2018-06-12T03:23:10.797Z,16.10
2018-06-12T03:25:39.533Z,16.20
2018-06-12T03:28:08.302Z,16.20
2018-06-12T03:30:36.975Z,16.30
2018-06-12T03:35:34.114Z,16.30
2018-06-12T03:38:02.816Z,16.40
2018-06-12T03:40:31.545Z,16.50
2018-06-12T03:43:00.233Z,16.50
2018-06-12T03:45:28.955Z,16.50
2018-06-12T03:47:57.758Z,16.50
2018-06-12T03:50:26.426Z,16.50
2018-06-12T03:52:55.263Z,16.50
2018-06-12T03:55:23.942Z,16.40
2018-06-12T03:57:52.651Z,16.50
2018-06-12T04:02:49.762Z,16.50
2018-06-12T04:07:47.786Z,16.50
2018-06-12T04:10:16.498Z,16.60
2018-06-12T04:12:45.188Z,16.60
2018-06-12T04:15:13.881Z,16.60
2018-06-12T04:17:42.587Z,16.60
2018-06-12T04:20:11.309Z,16.70
2018-06-12T04:22:40.088Z,16.70
2018-06-12T04:25:08.898Z,16.70
2018-06-12T04:27:37.808Z,16.70
2018-06-12T04:30:06.510Z,16.80
2018-06-12T04:32:35.225Z,16.80
2018-06-12T04:35:03.958Z,16.90
2018-06-12T04:40:01.071Z,17.00
2018-06-12T04:42:29.739Z,20.80
2018-06-12T04:44:58.465Z,17.10
2018-06-12T04:47:27.181Z,17.10
2018-06-12T04:49:55.882Z,17.10
2018-06-12T04:52:24.585Z,17.20
2018-06-12T04:54:53.295Z,17.10
2018-06-12T04:57:22.018Z,17.20
2018-06-12T04:59:50.761Z,17.30
2018-06-12T05:02:19.412Z,17.30
2018-06-12T05:04:48.181Z,17.30
2018-06-12T05:07:16.881Z,17.40
2018-06-12T05:09:45.572Z,17.50
2018-06-12T05:12:14.293Z,17.50
2018-06-12T05:14:42.968Z,17.50
2018-06-12T05:17:11.670Z,17.50
2018-06-12T05:19:40.440Z,17.50
2018-06-12T05:22:09.113Z,17.60
2018-06-12T05:24:37.853Z,17.70
2018-06-12T05:27:06.566Z,17.60
2018-06-12T05:29:35.256Z,17.60
2018-06-12T05:32:04.058Z,17.60
2018-06-12T05:34:32.770Z,17.70
2018-06-12T05:37:01.509Z,17.70
2018-06-12T05:39:30.192Z,17.70
2018-06-12T05:41:58.919Z,17.70
2018-06-12T05:44:27.614Z,17.80
2018-06-12T05:46:57.202Z,22.30
2018-06-12T05:49:25.962Z,18.00
2018-06-12T05:51:54.574Z,18.10
2018-06-12T05:54:23.253Z,18.30
2018-06-12T05:56:51.947Z,18.40
2018-06-12T05:59:20.662Z,18.50
2018-06-12T06:01:49.353Z,18.60
2018-06-12T06:04:18.304Z,17.50
2018-06-12T06:06:48.059Z,18.50
2018-06-12T06:09:16.783Z,15.20
2018-06-12T06:11:45.509Z,18.50
2018-06-12T06:14:14.198Z,18.40
2018-06-12T06:16:42.914Z,18.40
2018-06-12T06:19:12.405Z,18.30
2018-06-12T06:21:41.109Z,18.20
2018-06-12T06:24:09.792Z,18.20
2018-06-12T06:26:38.496Z,18.30
2018-06-12T06:31:35.597Z,18.50
2018-06-12T06:34:04.285Z,18.50
2018-06-12T06:36:32.978Z,18.50
2018-06-12T06:39:01.653Z,18.50
2018-06-12T06:41:30.366Z,18.50
2018-06-12T06:43:59.143Z,18.60
2018-06-12T06:46:27.860Z,18.60
2018-06-12T06:48:56.561Z,18.60
2018-06-12T06:56:22.541Z,19.20
2018-06-12T06:58:51.549Z,19.40
2018-06-12T07:01:20.254Z,19.70
2018-06-12T07:03:48.965Z,19.60
2018-06-12T07:06:17.696Z,19.70
2018-06-12T07:08:46.383Z,19.70
2018-06-12T07:11:15.102Z,19.60
2018-06-12T07:13:43.853Z,19.60
2018-06-12T07:16:12.577Z,19.60
2018-06-12T07:18:41.330Z,19.70
2018-06-12T07:21:16.953Z,19.80
2018-06-12T07:26:14.031Z,20.00
2018-06-12T07:28:42.710Z,20.10
2018-06-12T07:33:39.793Z,20.40
2018-06-12T07:36:08.504Z,20.30
2018-06-12T07:38:37.160Z,20.30
2018-06-12T07:41:05.943Z,20.30
2018-06-12T07:43:34.580Z,20.20
2018-06-12T07:46:03.269Z,20.50
2018-06-12T07:48:31.961Z,20.80
2018-06-12T07:51:00.698Z,21.10
2018-06-12T07:53:29.389Z,21.10
2018-06-12T07:55:58.058Z,21.20
2018-06-12T08:00:55.113Z,21.30
2018-06-12T08:03:23.805Z,21.20
2018-06-12T08:05:52.556Z,21.00
2018-06-12T08:08:21.214Z,20.70
2018-06-12T08:10:49.910Z,21.10
2018-06-12T08:13:18.590Z,20.40
2018-06-12T08:15:47.269Z,20.40
2018-06-12T08:18:15.972Z,20.30
2018-06-12T08:20:44.659Z,20.30
2018-06-12T08:23:13.335Z,20.30
2018-06-12T08:25:42.029Z,20.20
2018-06-12T08:28:10.733Z,20.20
2018-06-12T08:30:39.492Z,20.10
2018-06-12T08:33:08.130Z,20.00
2018-06-12T08:35:36.823Z,20.00
2018-06-12T08:38:05.526Z,20.00
2018-06-12T08:40:34.231Z,20.00
2018-06-12T08:43:02.915Z,20.00
2018-06-12T08:45:31.777Z,20.00
2018-06-12T08:48:00.378Z,20.00
2018-06-12T08:50:29.068Z,20.00
2018-06-12T08:52:57.754Z,20.00
2018-06-12T08:55:26.420Z,20.20
2018-06-12T08:57:55.147Z,20.40
2018-06-12T09:00:23.852Z,20.90
2018-06-12T09:02:52.517Z,21.50
2018-06-12T09:05:21.215Z,21.90
2018-06-12T09:07:49.904Z,22.10
2018-06-12T09:10:18.581Z,22.00
2018-06-12T09:12:47.314Z,21.90
2018-06-12T09:17:44.371Z,21.60
2018-06-12T09:22:41.417Z,21.60
2018-06-12T09:25:10.348Z,21.80
2018-06-12T09:27:44.446Z,22.10
2018-06-12T09:30:13.125Z,22.60
2018-06-12T09:35:10.306Z,22.60
2018-06-12T09:37:39.042Z,22.50
2018-06-12T09:40:07.779Z,22.40
2018-06-12T09:42:36.433Z,22.10
2018-06-12T09:45:05.384Z,22.10
2018-06-12T09:47:34.074Z,21.90
2018-06-12T09:50:02.744Z,21.70
2018-06-12T09:52:31.438Z,21.60
2018-06-12T09:55:00.122Z,20.10
2018-06-12T09:57:28.807Z,21.30
2018-06-12T09:59:57.494Z,21.30
2018-06-12T10:02:26.158Z,21.30
2018-06-12T10:04:54.870Z,21.30
2018-06-12T10:07:23.553Z,21.30
2018-06-12T10:09:52.845Z,21.40
2018-06-12T10:12:21.556Z,21.60
2018-06-12T10:14:50.245Z,21.70
2018-06-12T10:17:18.911Z,21.90
2018-06-12T10:19:47.879Z,21.90
2018-06-12T10:22:16.564Z,22.10
2018-06-12T10:24:45.220Z,22.60
2018-06-12T10:27:13.914Z,22.50
2018-06-12T10:29:42.651Z,22.60
2018-06-12T10:32:11.355Z,22.70
2018-06-12T10:34:40.013Z,22.60
2018-06-12T10:37:08.764Z,22.40
2018-06-12T10:39:37.377Z,22.30
2018-06-12T10:42:06.034Z,22.10
2018-06-12T10:47:03.527Z,22.10
2018-06-12T10:49:32.184Z,21.90
2018-06-12T10:52:00.877Z,21.80
2018-06-12T10:56:57.957Z,22.00
2018-06-12T10:59:26.665Z,22.30
2018-06-12T11:01:55.321Z,22.60
2018-06-12T11:04:24.113Z,22.60
2018-06-12T11:06:52.810Z,22.60
2018-06-12T11:09:21.454Z,22.80
2018-06-12T11:11:50.216Z,22.80
2018-06-12T11:14:18.901Z,22.80
2018-06-12T11:16:47.578Z,22.80
2018-06-12T11:19:16.284Z,22.70
2018-06-12T11:21:44.973Z,22.60
2018-06-12T11:24:13.715Z,22.40
2018-06-12T11:26:42.356Z,22.30
2018-06-12T11:29:11.024Z,22.30
2018-06-12T11:31:39.708Z,25.10
2018-06-12T11:34:08.398Z,22.50
2018-06-12T11:36:37.729Z,22.70
2018-06-12T11:39:07.363Z,22.90
2018-06-12T11:41:36.047Z,22.90
2018-06-12T11:44:04.739Z,23.00
2018-06-12T11:51:30.125Z,23.60
2018-06-12T11:53:58.830Z,23.40
2018-06-12T11:56:27.550Z,23.20
2018-06-12T11:58:56.190Z,23.10
2018-06-12T12:01:24.855Z,22.90
2018-06-12T12:06:21.954Z,22.80
2018-06-12T12:08:50.620Z,22.90
2018-06-12T12:11:19.796Z,22.90
2018-06-12T12:13:48.506Z,22.90
2018-06-12T12:16:17.177Z,22.90
2018-06-12T12:18:45.922Z,23.00
2018-06-12T12:21:14.608Z,23.30
2018-06-12T12:23:43.298Z,23.80
2018-06-12T12:26:11.961Z,23.90
2018-06-12T12:28:41.321Z,24.10
2018-06-12T12:31:09.928Z,24.30
2018-06-12T12:33:38.609Z,24.50
2018-06-12T12:36:07.404Z,24.60
2018-06-12T12:38:36.073Z,24.60
2018-06-12T12:41:04.752Z,24.50
2018-06-12T12:43:33.463Z,24.30
2018-06-12T12:46:02.161Z,24.00
2018-06-12T12:48:30.833Z,23.80
2018-06-12T12:50:59.537Z,23.80
2018-06-12T12:53:28.244Z,23.90
2018-06-12T12:55:56.981Z,24.10
2018-06-12T12:58:25.701Z,24.40
2018-06-12T13:00:54.394Z,24.60
2018-06-12T13:05:51.429Z,24.90
2018-06-12T13:08:20.142Z,24.90
2018-06-12T13:10:48.805Z,24.90
2018-06-12T13:13:17.516Z,24.90
2018-06-12T13:15:46.197Z,24.90
2018-06-12T13:18:15.243Z,25.00
2018-06-12T13:20:43.893Z,25.40
2018-06-12T13:23:12.665Z,25.40
2018-06-12T13:25:41.326Z,25.70
2018-06-12T13:28:10.145Z,25.70
2018-06-12T13:30:38.857Z,25.70
2018-06-12T13:33:08.661Z,25.60
2018-06-12T13:35:37.320Z,25.50
2018-06-12T13:38:05.965Z,25.20
2018-06-12T13:40:34.659Z,25.00
2018-06-12T13:43:03.400Z,25.00
2018-06-12T13:45:32.057Z,25.00
2018-06-12T13:48:00.793Z,25.20
2018-06-12T13:50:29.493Z,25.10
2018-06-12T13:52:58.180Z,25.00
2018-06-12T13:55:26.861Z,24.80
2018-06-12T13:57:55.537Z,24.70
2018-06-12T14:00:24.225Z,24.70
2018-06-12T14:02:52.900Z,24.90
2018-06-12T14:05:21.615Z,24.90
2018-06-12T14:07:51.082Z,24.90
2018-06-12T14:10:19.729Z,24.90
2018-06-12T14:12:48.384Z,24.80
2018-06-12T14:15:17.342Z,24.60
2018-06-12T14:17:46.066Z,24.30
2018-06-12T14:20:14.749Z,24.10
2018-06-12T14:22:43.505Z,24.20
2018-06-12T14:25:12.290Z,24.10
2018-06-12T14:27:40.917Z,24.20
2018-06-12T14:30:09.617Z,24.10
2018-06-12T14:32:38.314Z,24.10
2018-06-12T14:35:07.012Z,24.00
2018-06-12T14:37:35.721Z,23.80
2018-06-12T14:40:04.383Z,23.70
2018-06-12T14:45:01.570Z,23.60
2018-06-12T14:47:30.232Z,23.40
2018-06-12T14:49:58.962Z,23.30
2018-06-12T14:52:27.631Z,23.30
2018-06-12T14:54:56.417Z,23.10
2018-06-12T14:57:25.067Z,23.20
2018-06-12T14:59:53.776Z,23.20
2018-06-12T15:02:22.482Z,23.40
2018-06-12T15:04:51.262Z,23.40
2018-06-12T15:07:19.897Z,23.40
2018-06-12T15:09:48.577Z,23.40
2018-06-12T15:12:17.287Z,23.40
2018-06-12T15:14:46.560Z,23.40
2018-06-12T15:17:15.208Z,23.40
2018-06-12T15:19:43.886Z,23.50
2018-06-12T15:22:12.598Z,23.50
2018-06-12T15:24:41.263Z,23.50
2018-06-12T15:27:10.028Z,23.50
2018-06-12T15:29:38.697Z,23.50
2018-06-12T15:32:08.153Z,23.40
2018-06-12T15:34:36.849Z,23.40
2018-06-12T15:37:05.617Z,23.30
2018-06-12T15:39:34.275Z,23.20
2018-06-12T15:42:02.947Z,23.10
2018-06-12T15:44:31.617Z,22.90
2018-06-12T15:47:00.360Z,22.70
2018-06-12T15:49:28.989Z,22.60
2018-06-12T15:51:57.677Z,22.60
2018-06-12T15:54:26.385Z,22.50
2018-06-12T15:56:55.069Z,22.50
2018-06-12T15:59:23.750Z,22.50
2018-06-12T16:01:52.416Z,22.50
2018-06-12T16:04:21.121Z,22.70
2018-06-12T16:06:49.816Z,22.70
2018-06-12T16:09:18.503Z,22.60
2018-06-12T16:11:47.199Z,22.50
2018-06-12T16:14:16.005Z,22.40
2018-06-12T16:16:44.688Z,22.40
2018-06-12T16:19:13.370Z,22.40
2018-06-12T16:21:42.048Z,22.50
2018-06-12T16:24:10.731Z,22.60
2018-06-12T16:26:39.450Z,22.80
2018-06-12T16:29:08.119Z,22.80
2018-06-12T16:31:36.819Z,22.80
2018-06-12T16:34:05.538Z,22.70
2018-06-12T16:36:34.210Z,22.50
2018-06-12T16:39:02.965Z,22.50
2018-06-12T16:41:31.621Z,22.20
2018-06-12T16:44:00.441Z,22.20
2018-06-12T16:46:29.061Z,22.00
2018-06-12T16:48:57.799Z,21.90
2018-06-12T16:51:26.499Z,21.90
2018-06-12T16:53:55.192Z,21.90
2018-06-12T16:56:24.474Z,21.90
2018-06-12T16:58:53.121Z,21.90
2018-06-12T17:01:21.834Z,21.80
2018-06-12T17:03:50.514Z,21.70
2018-06-12T17:06:19.236Z,21.70
2018-06-12T17:08:47.928Z,21.70
2018-06-12T17:11:16.587Z,21.70
2018-06-12T17:13:45.387Z,21.70
2018-06-12T17:16:14.050Z,21.70
2018-06-12T17:18:42.765Z,21.50
2018-06-12T17:21:11.476Z,21.50
2018-06-12T17:23:40.201Z,21.50
2018-06-12T17:26:08.887Z,21.50
2018-06-12T17:28:37.603Z,21.30
2018-06-12T17:31:13.088Z,21.30
2018-06-12T17:33:41.809Z,25.60
2018-06-12T17:36:10.534Z,21.10
2018-06-12T17:38:39.204Z,21.10
2018-06-12T17:43:36.240Z,20.90
2018-06-12T17:46:05.080Z,20.70
2018-06-12T17:48:33.781Z,20.60
2018-06-12T17:51:02.536Z,20.50
2018-06-12T17:53:31.220Z,20.50
2018-06-12T17:55:59.859Z,20.50
2018-06-12T17:58:28.569Z,20.40
2018-06-12T18:00:57.226Z,20.30
2018-06-12T18:03:25.942Z,20.30
2018-06-12T18:05:54.662Z,20.30
2018-06-12T18:08:23.366Z,20.30
2018-06-12T18:10:52.019Z,20.30
2018-06-12T18:13:20.688Z,20.40
2018-06-12T18:15:49.385Z,20.40
2018-06-12T18:20:47.730Z,20.50
2018-06-12T18:23:16.428Z,20.50
2018-06-12T18:25:45.117Z,20.50
2018-06-12T18:28:13.860Z,20.50
2018-06-12T18:30:42.550Z,20.50
2018-06-12T18:33:11.230Z,20.40
2018-06-12T18:35:40.005Z,20.20
2018-06-12T18:38:08.737Z,20.20
2018-06-12T18:40:37.407Z,20.20
2018-06-12T18:43:06.164Z,20.20
2018-06-12T18:48:03.343Z,20.00
2018-06-12T18:50:32.000Z,19.90
2018-06-12T18:53:00.706Z,19.80
2018-06-12T18:55:29.396Z,19.70
2018-06-12T18:57:58.075Z,19.70
2018-06-12T19:00:26.806Z,19.60
2018-06-12T19:02:55.433Z,19.60
2018-06-12T19:05:24.137Z,19.50
2018-06-12T19:07:52.860Z,19.60
2018-06-12T19:10:21.535Z,19.50
2018-06-12T19:12:50.357Z,19.40
2018-06-12T19:15:19.062Z,19.30
2018-06-12T19:20:16.185Z,19.30
2018-06-12T19:22:44.913Z,19.30
2018-06-12T19:27:42.779Z,22.50
2018-06-12T19:30:11.455Z,19.20
2018-06-12T19:32:40.164Z,19.10
2018-06-12T19:35:08.837Z,19.10
2018-06-12T19:40:05.852Z,19.00
2018-06-12T19:42:34.539Z,18.80
2018-06-12T19:45:03.221Z,18.80
2018-06-12T19:47:31.913Z,18.80
2018-06-12T19:50:00.615Z,18.70
2018-06-12T19:52:29.321Z,18.70
2018-06-12T19:54:58.006Z,18.70
2018-06-12T19:57:26.658Z,18.70
2018-06-12T19:59:55.346Z,18.70
2018-06-12T20:02:24.119Z,18.60
2018-06-12T20:04:52.762Z,18.60
2018-06-12T20:07:21.450Z,18.50
2018-06-12T20:09:50.129Z,18.50
2018-06-12T20:12:18.814Z,18.50
2018-06-12T20:14:47.533Z,18.40
2018-06-12T20:17:16.285Z,18.40
2018-06-12T20:19:44.987Z,18.40
2018-06-12T20:22:13.662Z,18.40
2018-06-12T20:24:42.340Z,18.30
2018-06-12T20:27:11.066Z,18.30
2018-06-12T20:29:39.777Z,18.20
2018-06-12T20:32:08.467Z,18.10
2018-06-12T20:34:37.142Z,18.10
2018-06-12T20:37:05.852Z,18.10
2018-06-12T20:39:34.587Z,18.10
2018-06-12T20:42:03.245Z,18.10
2018-06-12T20:44:31.963Z,18.00
2018-06-12T20:47:00.637Z,18.00
2018-06-12T20:49:29.321Z,17.90
2018-06-12T20:51:58.007Z,17.90
2018-06-12T20:54:26.685Z,17.90
2018-06-12T20:56:55.361Z,17.90
2018-06-12T20:59:24.107Z,17.80
2018-06-12T21:01:52.745Z,17.80
2018-06-12T21:04:21.573Z,17.80
2018-06-12T21:06:50.290Z,17.80
2018-06-12T21:09:18.972Z,17.80
2018-06-12T21:11:47.670Z,17.70
2018-06-12T21:14:16.368Z,17.70
2018-06-12T21:16:45.066Z,17.80
2018-06-12T21:19:13.794Z,17.80
2018-06-12T21:21:42.454Z,17.80
2018-06-12T21:24:11.154Z,17.80
2018-06-12T21:29:08.189Z,17.70
2018-06-12T21:31:36.966Z,17.70
2018-06-12T21:34:05.703Z,17.70
2018-06-12T21:36:34.438Z,17.70
2018-06-12T21:39:03.421Z,17.70
2018-06-12T21:41:32.083Z,17.70
2018-06-12T21:44:00.888Z,17.70
2018-06-12T21:46:29.647Z,17.70
2018-06-12T21:48:58.362Z,17.70
2018-06-12T21:51:27.059Z,17.60
2018-06-12T21:53:55.835Z,17.60
2018-06-12T21:56:25.159Z,17.60
2018-06-12T21:58:53.841Z,17.50
2018-06-12T22:01:22.537Z,17.50
2018-06-12T22:03:51.241Z,17.50
2018-06-12T22:06:19.937Z,17.50
2018-06-12T22:13:45.468Z,17.40
2018-06-12T22:16:21.832Z,17.50
2018-06-12T22:18:50.891Z,17.50
2018-06-12T22:21:20.024Z,17.40
2018-06-12T22:23:48.717Z,17.40
2018-06-12T22:26:17.441Z,17.50
2018-06-12T22:28:46.726Z,17.40
2018-06-12T22:31:15.449Z,17.40
2018-06-12T22:33:44.172Z,17.40
2018-06-12T22:36:12.868Z,17.40
2018-06-12T22:38:41.577Z,17.30
2018-06-12T22:43:38.686Z,17.30
2018-06-12T22:46:07.401Z,17.30
2018-06-12T22:48:36.080Z,17.30
2018-06-12T22:51:04.825Z,17.30
2018-06-12T22:53:33.542Z,17.30
2018-06-12T22:56:02.262Z,17.30
2018-06-12T23:03:27.768Z,17.20
2018-06-12T23:05:56.457Z,17.20
2018-06-12T23:08:25.137Z,17.20
2018-06-12T23:10:53.863Z,17.20
2018-06-12T23:15:50.932Z,17.10
2018-06-12T23:18:19.629Z,17.20
2018-06-12T23:20:59.832Z,17.10
2018-06-12T23:23:28.506Z,17.10
2018-06-12T23:25:57.217Z,17.10
2018-06-12T23:28:25.893Z,17.10
2018-06-12T23:30:55.309Z,17.00
2018-06-12T23:33:24.009Z,17.00
2018-06-12T23:38:21.067Z,16.90
2018-06-12T23:40:49.790Z,16.90
2018-06-12T23:43:18.435Z,16.90
2018-06-12T23:45:47.147Z,16.80
2018-06-12T23:48:15.809Z,16.80
2018-06-12T23:50:44.579Z,16.70
2018-06-12T23:53:13.301Z,16.70
2018-06-12T23:58:10.947Z,16.80
